createdAt,value
2019-01-08T00:00:38.351Z,1002.44
2019-01-08T00:01:38.362Z,1002.43
2019-01-08T00:02:38.345Z,1002.38
2019-01-08T00:03:38.347Z,1002.43
2019-01-08T00:04:38.305Z,1002.40
2019-01-08T00:05:38.318Z,1002.37
2019-01-08T00:06:38.292Z,1002.32
2019-01-08T00:07:38.269Z,1002.29
2019-01-08T00:08:38.305Z,1002.35
2019-01-08T00:09:38.264Z,1002.35
2019-01-08T00:10:38.243Z,1002.31
2019-01-08T00:11:38.241Z,1002.28
2019-01-08T00:12:38.230Z,1002.41
2019-01-08T00:13:38.211Z,1002.24
2019-01-08T00:14:38.212Z,1002.27
2019-01-08T00:15:38.186Z,1002.31
2019-01-08T00:16:38.182Z,1002.24
2019-01-08T00:17:38.189Z,1002.15
2019-01-08T00:18:38.154Z,1002.13
2019-01-08T00:19:38.169Z,1002.16
2019-01-08T00:20:38.149Z,1002.21
2019-01-08T00:21:38.144Z,1002.18
2019-01-08T00:22:38.115Z,1002.21
2019-01-08T00:23:38.108Z,1002.16
2019-01-08T00:24:38.096Z,1002.23
2019-01-08T00:25:38.100Z,1002.15
2019-01-08T00:26:38.071Z,1002.17
2019-01-08T00:27:38.065Z,1002.07
2019-01-08T00:28:43.016Z,1002.10
2019-01-08T00:29:39.042Z,1002.13
2019-01-08T00:30:38.067Z,1002.11
2019-01-08T00:31:38.040Z,1002.16
2019-01-08T00:32:38.008Z,1002.15
2019-01-08T00:33:37.998Z,1002.18
2019-01-08T00:34:37.994Z,1002.18
2019-01-08T00:35:37.994Z,1002.14
2019-01-08T00:36:37.963Z,1002.14
2019-01-08T00:37:38.034Z,1002.17
2019-01-08T00:38:37.945Z,1002.26
2019-01-08T00:39:37.936Z,1002.17
2019-01-08T00:40:37.962Z,1002.13
2019-01-08T00:41:37.911Z,1002.17
2019-01-08T00:42:37.909Z,1002.09
2019-01-08T00:43:37.909Z,1002.18
2019-01-08T00:44:37.901Z,1002.05
2019-01-08T00:45:37.887Z,1002.07
2019-01-08T00:46:37.861Z,1002.02
2019-01-08T00:47:37.852Z,1002.03
2019-01-08T00:48:37.841Z,1002.01
2019-01-08T00:49:37.827Z,1001.97
2019-01-08T00:50:37.834Z,1001.95
2019-01-08T00:51:37.861Z,1001.93
2019-01-08T00:52:37.836Z,1001.93
2019-01-08T00:53:37.794Z,1001.88
2019-01-08T00:54:37.841Z,1001.86
2019-01-08T00:55:37.790Z,1001.90
2019-01-08T00:56:37.759Z,1001.90
2019-01-08T00:57:37.745Z,1001.88
2019-01-08T00:58:37.772Z,1001.89
2019-01-08T00:59:37.731Z,1001.84
2019-01-08T01:00:37.740Z,1001.81
2019-01-08T01:01:37.710Z,1001.76
2019-01-08T01:02:37.692Z,1001.69
2019-01-08T01:03:37.683Z,1001.66
2019-01-08T01:04:37.669Z,1001.69
2019-01-08T01:05:37.671Z,1001.66
2019-01-08T01:06:37.668Z,1001.68
2019-01-08T01:07:37.638Z,1001.66
2019-01-08T01:08:37.675Z,1001.64
2019-01-08T01:09:37.624Z,1001.59
2019-01-08T01:10:37.616Z,1001.64
2019-01-08T01:11:37.620Z,1001.61
2019-01-08T01:12:37.592Z,1001.63
2019-01-08T01:13:37.586Z,1001.49
2019-01-08T01:14:37.570Z,1001.52
2019-01-08T01:15:37.560Z,1001.48
2019-01-08T01:16:37.565Z,1001.42
2019-01-08T01:17:37.536Z,1001.42
2019-01-08T01:18:37.524Z,1001.39
2019-01-08T01:19:37.517Z,1001.36
2019-01-08T01:20:37.509Z,1001.34
2019-01-08T01:21:37.508Z,1001.34
2019-01-08T01:22:37.482Z,1001.32
2019-01-08T01:23:37.482Z,1001.24
2019-01-08T01:24:37.469Z,1001.23
2019-01-08T01:25:37.451Z,1001.25
2019-01-08T01:26:37.461Z,1001.27
2019-01-08T01:27:37.435Z,1001.29
2019-01-08T01:28:37.426Z,1001.28
2019-01-08T01:29:37.411Z,1001.29
2019-01-08T01:30:37.407Z,1001.24
2019-01-08T01:31:37.461Z,1001.34
2019-01-08T01:32:37.385Z,1001.29
2019-01-08T01:33:37.377Z,1001.34
2019-01-08T01:34:37.361Z,1001.33
2019-01-08T01:35:37.346Z,1001.34
2019-01-08T01:36:37.351Z,1001.29
2019-01-08T01:37:37.349Z,1001.34
2019-01-08T01:38:37.342Z,1001.31
2019-01-08T01:39:37.326Z,1001.28
2019-01-08T01:40:37.302Z,1001.24
2019-01-08T01:41:37.303Z,1001.30
2019-01-08T01:42:37.276Z,1001.19
2019-01-08T01:43:37.263Z,1001.19
2019-01-08T01:44:37.270Z,1001.19
2019-01-08T01:45:37.266Z,1001.11
2019-01-08T01:46:37.232Z,1001.13
2019-01-08T01:47:37.223Z,1001.21
2019-01-08T01:48:37.254Z,1001.20
2019-01-08T01:49:37.216Z,1001.12
2019-01-08T01:50:37.190Z,1001.10
2019-01-08T01:51:37.190Z,1001.19
2019-01-08T01:52:37.187Z,1001.19
2019-01-08T01:53:37.165Z,1001.16
2019-01-08T01:54:37.179Z,1001.20
2019-01-08T01:55:37.140Z,1001.08
2019-01-08T01:56:37.146Z,1001.17
2019-01-08T01:57:37.117Z,1001.17
2019-01-08T01:58:37.110Z,1001.06
2019-01-08T01:59:37.139Z,1001.03
2019-01-08T02:00:37.108Z,1001.07
2019-01-08T02:01:37.091Z,1000.99
2019-01-08T02:02:37.067Z,1001.01
2019-01-08T02:03:37.066Z,1001.02
2019-01-08T02:04:37.051Z,1000.99
2019-01-08T02:05:37.050Z,1000.95
2019-01-08T02:06:37.021Z,1000.95
2019-01-08T02:07:37.018Z,1000.86
2019-01-08T02:08:37.016Z,1000.91
2019-01-08T02:09:36.991Z,1000.89
2019-01-08T02:10:37.024Z,1000.88
2019-01-08T02:11:36.973Z,1000.88
2019-01-08T02:12:36.983Z,1000.88
2019-01-08T02:13:36.964Z,1000.90
2019-01-08T02:14:36.948Z,1000.90
2019-01-08T02:15:36.943Z,1000.82
2019-01-08T02:16:36.916Z,1000.82
2019-01-08T02:17:36.933Z,1000.86
2019-01-08T02:18:36.902Z,1000.88
2019-01-08T02:19:36.919Z,1000.84
2019-01-08T02:20:36.904Z,1000.79
2019-01-08T02:21:36.867Z,1000.72
2019-01-08T02:22:36.870Z,1000.73
2019-01-08T02:23:36.851Z,1000.58
2019-01-08T02:24:36.844Z,1000.61
2019-01-08T02:25:36.823Z,1000.54
2019-01-08T02:26:36.822Z,1000.56
2019-01-08T02:27:36.821Z,1000.50
2019-01-08T02:28:36.791Z,1000.54
2019-01-08T02:29:36.788Z,1000.44
2019-01-08T02:30:36.785Z,1000.38
2019-01-08T02:31:36.796Z,1000.44
2019-01-08T02:32:36.946Z,1000.38
2019-01-08T02:33:36.739Z,1000.45
2019-01-08T02:34:36.771Z,1000.35
2019-01-08T02:35:36.743Z,1000.36
2019-01-08T02:36:36.709Z,1000.24
2019-01-08T02:37:36.698Z,1000.24
2019-01-08T02:38:36.702Z,1000.13
2019-01-08T02:39:36.683Z,1000.08
2019-01-08T02:40:36.666Z,999.93
2019-01-08T02:41:36.675Z,999.95
2019-01-08T02:42:36.650Z,999.88
2019-01-08T02:43:36.662Z,999.97
2019-01-08T02:44:36.651Z,1000.00
2019-01-08T02:45:36.616Z,999.96
2019-01-08T02:46:36.749Z,999.92
2019-01-08T02:47:36.596Z,999.86
2019-01-08T02:48:36.598Z,999.90
2019-01-08T02:49:36.577Z,999.91
2019-01-08T02:50:36.562Z,999.86
2019-01-08T02:51:36.551Z,999.94
2019-01-08T02:52:36.541Z,999.86
2019-01-08T02:53:36.553Z,999.81
2019-01-08T02:54:36.535Z,999.71
2019-01-08T02:55:36.513Z,999.69
2019-01-08T02:56:36.511Z,999.67
2019-01-08T02:57:36.502Z,999.76
2019-01-08T02:58:36.497Z,999.61
2019-01-08T02:59:36.471Z,999.65
2019-01-08T03:00:36.472Z,999.68
2019-01-08T03:01:36.444Z,999.64
2019-01-08T03:02:36.435Z,999.53
2019-01-08T03:03:36.442Z,999.59
2019-01-08T03:04:36.432Z,999.74
2019-01-08T03:05:36.410Z,999.69
2019-01-08T03:06:36.422Z,999.66
2019-01-08T03:07:36.385Z,999.69
2019-01-08T03:08:36.388Z,999.62
2019-01-08T03:09:36.370Z,999.56
2019-01-08T03:10:36.364Z,999.64
2019-01-08T03:11:36.344Z,999.62
2019-01-08T03:12:36.328Z,999.49
2019-01-08T03:13:36.342Z,999.25
2019-01-08T03:14:36.309Z,999.25
2019-01-08T03:15:36.301Z,999.40
2019-01-08T03:16:36.295Z,999.33
2019-01-08T03:17:36.304Z,999.25
2019-01-08T03:18:36.289Z,999.24
2019-01-08T03:19:36.261Z,999.30
2019-01-08T03:20:36.252Z,999.17
2019-01-08T03:21:36.240Z,999.10
2019-01-08T03:22:36.231Z,999.10
2019-01-08T03:23:36.230Z,999.13
2019-01-08T03:24:36.209Z,999.16
2019-01-08T03:25:36.223Z,999.14
2019-01-08T03:26:36.189Z,999.04
2019-01-08T03:27:36.182Z,998.86
2019-01-08T03:28:36.212Z,999.05
2019-01-08T03:29:36.157Z,999.00
2019-01-08T03:30:36.143Z,998.97
2019-01-08T03:31:36.132Z,999.03
2019-01-08T03:32:36.130Z,999.01
2019-01-08T03:33:36.118Z,999.01
2019-01-08T03:34:36.130Z,999.01
2019-01-08T03:35:36.094Z,999.00
2019-01-08T03:36:36.099Z,998.94
2019-01-08T03:37:36.085Z,998.95
2019-01-08T03:38:36.059Z,998.85
2019-01-08T03:39:36.123Z,998.88
2019-01-08T03:40:36.073Z,998.93
2019-01-08T03:41:36.032Z,998.94
2019-01-08T03:42:36.016Z,998.83
2019-01-08T03:43:36.052Z,998.91
2019-01-08T03:44:36.035Z,998.82
2019-01-08T03:45:35.986Z,998.77
2019-01-08T03:46:36.019Z,998.86
2019-01-08T03:47:35.978Z,998.57
2019-01-08T03:48:35.953Z,998.78
2019-01-08T03:49:35.972Z,998.72
2019-01-08T03:50:35.942Z,998.76
2019-01-08T03:51:35.933Z,998.73
2019-01-08T03:52:35.940Z,998.63
2019-01-08T03:53:35.919Z,998.62
2019-01-08T03:54:35.950Z,998.62
2019-01-08T03:55:35.887Z,998.66
2019-01-08T03:56:35.886Z,998.63
2019-01-08T03:57:35.857Z,998.60
2019-01-08T03:58:35.910Z,998.55
2019-01-08T03:59:41.906Z,998.46
2019-01-08T04:00:36.835Z,998.34
2019-01-08T04:01:35.821Z,998.33
2019-01-08T04:02:35.816Z,998.32
2019-01-08T04:03:35.808Z,998.26
2019-01-08T04:04:35.809Z,998.24
2019-01-08T04:05:35.776Z,998.14
2019-01-08T04:06:35.827Z,998.21
2019-01-08T04:07:35.768Z,998.12
2019-01-08T04:08:35.744Z,998.17
2019-01-08T04:09:35.778Z,998.09
2019-01-08T04:10:35.756Z,998.06
2019-01-08T04:11:35.760Z,998.05
2019-01-08T04:12:35.717Z,998.04
2019-01-08T04:13:35.704Z,998.01
2019-01-08T04:14:35.723Z,998.00
2019-01-08T04:15:35.686Z,998.08
2019-01-08T04:16:35.683Z,998.01
2019-01-08T04:17:35.655Z,998.13
2019-01-08T04:18:35.646Z,998.04
2019-01-08T04:19:35.626Z,997.94
2019-01-08T04:20:35.646Z,997.96
2019-01-08T04:21:35.613Z,997.98
2019-01-08T04:22:35.611Z,997.89
2019-01-08T04:23:35.610Z,997.88
2019-01-08T04:24:35.578Z,997.81
2019-01-08T04:25:35.601Z,997.84
2019-01-08T04:26:35.616Z,997.71
2019-01-08T04:27:35.558Z,997.78
2019-01-08T04:28:35.533Z,997.78
2019-01-08T04:29:35.526Z,997.71
2019-01-08T04:30:35.580Z,997.75
2019-01-08T04:31:35.508Z,997.59
2019-01-08T04:32:35.495Z,997.67
2019-01-08T04:33:35.491Z,997.56
2019-01-08T04:34:35.506Z,997.61
2019-01-08T04:35:35.486Z,997.59
2019-01-08T04:36:35.452Z,997.44
2019-01-08T04:37:35.450Z,997.44
2019-01-08T04:38:35.491Z,997.36
2019-01-08T04:39:35.418Z,997.31
2019-01-08T04:40:35.451Z,997.31
2019-01-08T04:41:35.405Z,997.44
2019-01-08T04:42:35.413Z,997.42
2019-01-08T04:43:35.393Z,997.32
2019-01-08T04:44:35.368Z,997.32
2019-01-08T04:45:35.372Z,997.40
2019-01-08T04:46:35.345Z,997.32
2019-01-08T04:47:35.333Z,997.34
2019-01-08T04:48:35.331Z,997.16
2019-01-08T04:49:35.390Z,997.34
2019-01-08T04:50:35.330Z,997.33
2019-01-08T04:51:35.293Z,997.27
2019-01-08T04:52:35.285Z,997.23
2019-01-08T04:53:35.319Z,997.26
2019-01-08T04:54:35.269Z,997.12
2019-01-08T04:55:35.287Z,997.22
2019-01-08T04:56:35.244Z,997.20
2019-01-08T04:57:35.258Z,997.16
2019-01-08T04:58:35.242Z,997.18
2019-01-08T04:59:35.229Z,997.14
2019-01-08T05:00:35.251Z,997.23
2019-01-08T05:01:35.202Z,997.02
2019-01-08T05:02:35.176Z,997.08
2019-01-08T05:03:35.196Z,997.25
2019-01-08T05:04:35.156Z,997.08
2019-01-08T05:05:35.164Z,997.13
2019-01-08T05:06:35.134Z,997.11
2019-01-08T05:07:35.127Z,997.10
2019-01-08T05:08:35.123Z,997.16
2019-01-08T05:09:35.127Z,996.97
2019-01-08T05:10:35.190Z,997.04
2019-01-08T05:11:35.086Z,996.90
2019-01-08T05:12:35.088Z,996.96
2019-01-08T05:13:35.085Z,996.87
2019-01-08T05:14:35.060Z,996.94
2019-01-08T05:15:35.044Z,996.93
2019-01-08T05:16:35.046Z,996.82
2019-01-08T05:17:35.019Z,996.80
2019-01-08T05:18:35.008Z,996.87
2019-01-08T05:19:35.031Z,996.83
2019-01-08T05:20:35.011Z,996.77
2019-01-08T05:21:35.110Z,996.81
2019-01-08T05:22:34.968Z,996.81
2019-01-08T05:23:34.975Z,996.73
2019-01-08T05:24:34.972Z,996.76
2019-01-08T05:25:34.934Z,996.75
2019-01-08T05:26:34.993Z,996.66
2019-01-08T05:27:34.916Z,996.59
2019-01-08T05:28:34.917Z,996.68
2019-01-08T05:29:34.891Z,996.64
2019-01-08T05:30:34.886Z,996.61
2019-01-08T05:31:34.925Z,996.61
2019-01-08T05:32:34.888Z,996.59
2019-01-08T05:33:34.853Z,996.78
2019-01-08T05:34:34.855Z,996.52
2019-01-08T05:35:34.873Z,996.55
2019-01-08T05:36:34.837Z,996.53
2019-01-08T05:37:34.809Z,996.48
2019-01-08T05:38:34.808Z,996.53
2019-01-08T05:39:34.805Z,996.44
2019-01-08T05:40:34.802Z,996.47
2019-01-08T05:41:34.790Z,996.50
2019-01-08T05:42:34.766Z,996.50
2019-01-08T05:43:34.798Z,996.40
2019-01-08T05:44:34.755Z,996.44
2019-01-08T05:45:34.763Z,996.46
2019-01-08T05:46:34.731Z,996.33
2019-01-08T05:47:34.717Z,996.43
2019-01-08T05:48:34.695Z,996.41
2019-01-08T05:49:34.691Z,996.49
2019-01-08T05:50:34.717Z,996.53
2019-01-08T05:51:34.665Z,996.48
2019-01-08T05:52:34.675Z,996.44
2019-01-08T05:53:34.649Z,996.44
2019-01-08T05:54:34.631Z,996.37
2019-01-08T05:55:34.643Z,996.43
2019-01-08T05:56:34.612Z,996.45
2019-01-08T05:57:34.638Z,996.44
2019-01-08T05:58:34.602Z,996.47
2019-01-08T05:59:34.640Z,996.35
2019-01-08T06:00:34.601Z,996.45
2019-01-08T06:01:34.559Z,996.45
2019-01-08T06:02:34.568Z,996.37
2019-01-08T06:03:34.538Z,996.38
2019-01-08T06:04:34.528Z,996.30
2019-01-08T06:05:34.562Z,996.30
2019-01-08T06:06:34.513Z,996.27
2019-01-08T06:07:34.524Z,996.43
2019-01-08T06:08:34.492Z,996.44
2019-01-08T06:09:34.478Z,996.38
2019-01-08T06:10:34.464Z,996.43
2019-01-08T06:11:34.480Z,996.43
2019-01-08T06:12:34.480Z,996.41
2019-01-08T06:13:34.440Z,996.38
2019-01-08T06:14:34.472Z,996.43
2019-01-08T06:15:34.444Z,996.41
2019-01-08T06:16:34.403Z,996.45
2019-01-08T06:17:34.411Z,996.50
2019-01-08T06:18:34.443Z,996.49
2019-01-08T06:19:34.369Z,996.47
2019-01-08T06:20:34.363Z,996.47
2019-01-08T06:21:34.394Z,996.45
2019-01-08T06:22:34.355Z,996.45
2019-01-08T06:23:34.327Z,996.50
2019-01-08T06:24:34.351Z,996.51
2019-01-08T06:25:34.328Z,996.48
2019-01-08T06:26:34.305Z,996.53
2019-01-08T06:27:34.352Z,996.46
2019-01-08T06:28:34.288Z,996.54
2019-01-08T06:29:34.284Z,996.46
2019-01-08T06:30:34.276Z,996.46
2019-01-08T06:31:34.248Z,996.42
2019-01-08T06:32:34.249Z,996.44
2019-01-08T06:33:34.244Z,996.39
2019-01-08T06:34:34.213Z,996.35
2019-01-08T06:35:34.202Z,996.38
2019-01-08T06:36:34.197Z,996.36
2019-01-08T06:37:34.200Z,996.34
2019-01-08T06:38:34.177Z,996.37
2019-01-08T06:39:34.161Z,996.38
2019-01-08T06:40:34.193Z,996.34
2019-01-08T06:41:34.176Z,996.34
2019-01-08T06:42:34.146Z,996.43
2019-01-08T06:43:34.155Z,996.29
2019-01-08T06:44:34.126Z,996.42
2019-01-08T06:45:34.096Z,996.40
2019-01-08T06:46:34.091Z,996.40
2019-01-08T06:47:34.117Z,996.39
2019-01-08T06:48:34.079Z,996.37
2019-01-08T06:49:34.091Z,996.39
2019-01-08T06:50:34.077Z,996.44
2019-01-08T06:51:34.070Z,996.45
2019-01-08T06:52:34.064Z,996.54
2019-01-08T06:53:34.036Z,996.56
2019-01-08T06:54:34.004Z,996.49
2019-01-08T06:55:33.999Z,996.52
2019-01-08T06:56:34.004Z,996.44
2019-01-08T06:57:34.002Z,996.51
2019-01-08T06:58:34.001Z,996.51
2019-01-08T06:59:33.952Z,996.44
2019-01-08T07:00:33.996Z,996.57
2019-01-08T07:01:33.959Z,996.48
2019-01-08T07:02:33.921Z,996.50
2019-01-08T07:03:33.933Z,996.46
2019-01-08T07:04:33.934Z,996.49
2019-01-08T07:05:33.886Z,996.46
2019-01-08T07:06:33.885Z,996.36
2019-01-08T07:07:33.878Z,996.36
2019-01-08T07:08:33.882Z,996.34
2019-01-08T07:09:33.880Z,996.35
2019-01-08T07:10:33.841Z,996.43
2019-01-08T07:11:33.911Z,996.31
2019-01-08T07:12:33.838Z,996.40
2019-01-08T07:13:33.820Z,996.42
2019-01-08T07:14:33.825Z,996.44
2019-01-08T07:15:33.831Z,996.33
2019-01-08T07:16:33.828Z,996.39
2019-01-08T07:17:33.764Z,996.39
2019-01-08T07:18:33.819Z,996.39
2019-01-08T07:19:33.799Z,996.38
2019-01-08T07:20:33.731Z,996.44
2019-01-08T07:21:33.723Z,996.36
2019-01-08T07:22:33.717Z,996.43
2019-01-08T07:23:33.757Z,996.42
2019-01-08T07:24:33.718Z,996.38
2019-01-08T07:25:41.935Z,996.36
2019-01-08T07:26:34.680Z,996.37
2019-01-08T07:27:33.669Z,996.36
2019-01-08T07:28:33.672Z,996.42
2019-01-08T07:29:33.636Z,996.42
2019-01-08T07:30:41.222Z,996.44
2019-01-08T07:31:34.626Z,996.38
2019-01-08T07:32:33.628Z,996.44
2019-01-08T07:33:33.639Z,996.41
2019-01-08T07:34:33.632Z,996.43
2019-01-08T07:35:33.594Z,996.46
2019-01-08T07:36:33.565Z,996.42
2019-01-08T07:37:33.556Z,996.51
2019-01-08T07:38:33.560Z,996.48
2019-01-08T07:39:33.557Z,996.48
2019-01-08T07:40:33.552Z,996.43
2019-01-08T07:41:33.518Z,996.46
2019-01-08T07:42:33.516Z,996.44
2019-01-08T07:43:33.573Z,996.40
2019-01-08T07:44:33.516Z,996.32
2019-01-08T07:45:33.481Z,996.38
2019-01-08T07:46:33.479Z,996.39
2019-01-08T07:47:33.469Z,996.41
2019-01-08T07:48:33.444Z,996.39
2019-01-08T07:49:33.446Z,996.37
2019-01-08T07:50:33.465Z,996.35
2019-01-08T07:51:33.435Z,996.38
2019-01-08T07:52:33.403Z,996.33
2019-01-08T07:53:33.406Z,996.43
2019-01-08T07:54:33.425Z,996.39
2019-01-08T07:55:33.399Z,996.36
2019-01-08T07:56:33.357Z,996.32
2019-01-08T07:57:33.355Z,996.31
2019-01-08T07:58:33.359Z,996.25
2019-01-08T07:59:33.349Z,996.35
2019-01-08T08:00:33.356Z,996.40
2019-01-08T08:01:33.350Z,996.48
2019-01-08T08:02:33.315Z,996.44
2019-01-08T08:03:33.285Z,996.30
2019-01-08T08:04:33.292Z,996.32
2019-01-08T08:05:33.269Z,996.43
2019-01-08T08:06:33.274Z,996.35
2019-01-08T08:07:33.275Z,996.44
2019-01-08T08:08:33.231Z,996.45
2019-01-08T08:09:33.240Z,996.40
2019-01-08T08:10:33.258Z,996.43
2019-01-08T08:11:33.200Z,996.25
2019-01-08T08:12:33.194Z,996.33
2019-01-08T08:13:33.205Z,996.33
2019-01-08T08:14:33.229Z,996.30
2019-01-08T08:15:33.162Z,996.26
2019-01-08T08:16:33.160Z,996.27
2019-01-08T08:17:33.140Z,996.27
2019-01-08T08:18:33.132Z,996.20
2019-01-08T08:19:33.119Z,996.20
2019-01-08T08:20:33.126Z,996.13
2019-01-08T08:21:33.101Z,996.17
2019-01-08T08:22:33.115Z,996.18
2019-01-08T08:23:33.078Z,996.15
2019-01-08T08:24:33.073Z,996.06
2019-01-08T08:25:33.077Z,996.13
2019-01-08T08:26:33.072Z,996.09
2019-01-08T08:27:33.036Z,996.07
2019-01-08T08:28:33.069Z,996.07
2019-01-08T08:29:33.036Z,996.06
2019-01-08T08:30:33.034Z,996.03
2019-01-08T08:31:32.994Z,996.01
2019-01-08T08:32:32.993Z,995.99
2019-01-08T08:33:32.983Z,996.11
2019-01-08T08:34:32.962Z,996.01
2019-01-08T08:35:32.985Z,996.06
2019-01-08T08:36:32.943Z,996.09
2019-01-08T08:37:32.931Z,996.10
2019-01-08T08:38:32.920Z,996.05
2019-01-08T08:39:32.970Z,995.99
2019-01-08T08:40:32.911Z,996.09
2019-01-08T08:41:32.894Z,996.03
2019-01-08T08:42:32.886Z,996.05
2019-01-08T08:43:32.864Z,996.02
2019-01-08T08:44:32.902Z,995.98
2019-01-08T08:45:32.868Z,996.02
2019-01-08T08:46:32.869Z,996.01
2019-01-08T08:47:32.830Z,995.91
2019-01-08T08:48:32.838Z,995.97
2019-01-08T08:49:32.804Z,996.05
2019-01-08T08:50:32.821Z,995.97
2019-01-08T08:51:32.794Z,995.98
2019-01-08T08:52:32.791Z,995.99
2019-01-08T08:53:32.758Z,995.99
2019-01-08T08:54:32.751Z,995.92
2019-01-08T08:55:32.750Z,995.89
2019-01-08T08:56:32.749Z,995.92
2019-01-08T08:57:32.719Z,995.96
2019-01-08T08:58:32.710Z,995.89
2019-01-08T08:59:32.776Z,995.85
2019-01-08T09:00:32.718Z,995.75
2019-01-08T09:01:32.674Z,995.82
2019-01-08T09:02:32.676Z,995.79
2019-01-08T09:03:32.675Z,995.76
2019-01-08T09:04:32.650Z,995.74
2019-01-08T09:05:32.645Z,995.73
2019-01-08T09:06:32.634Z,995.75
2019-01-08T09:07:32.625Z,995.72
2019-01-08T09:08:32.601Z,995.72
2019-01-08T09:09:32.661Z,995.75
2019-01-08T09:10:32.593Z,995.62
2019-01-08T09:11:32.618Z,995.72
2019-01-08T09:12:32.594Z,995.76
2019-01-08T09:13:32.553Z,995.76
2019-01-08T09:14:32.553Z,995.68
2019-01-08T09:15:32.582Z,995.84
2019-01-08T09:16:32.519Z,995.81
2019-01-08T09:17:32.507Z,995.81
2019-01-08T09:18:33.760Z,995.86
2019-01-08T09:19:32.543Z,995.91
2019-01-08T09:20:32.503Z,995.84
2019-01-08T09:21:32.478Z,995.81
2019-01-08T09:22:32.468Z,995.90
2019-01-08T09:23:32.448Z,995.92
2019-01-08T09:24:32.442Z,995.91
2019-01-08T09:25:32.425Z,995.93
2019-01-08T09:26:32.453Z,995.95
2019-01-08T09:27:32.397Z,995.97
2019-01-08T09:28:32.387Z,996.01
2019-01-08T09:29:32.415Z,996.10
2019-01-08T09:30:32.368Z,996.07
2019-01-08T09:31:32.416Z,996.10
2019-01-08T09:32:32.365Z,996.13
2019-01-08T09:33:32.335Z,996.13
2019-01-08T09:34:32.325Z,996.15
2019-01-08T09:35:32.314Z,996.18
2019-01-08T09:36:32.345Z,996.21
2019-01-08T09:37:32.299Z,996.23
2019-01-08T09:38:32.308Z,996.22
2019-01-08T09:39:32.317Z,996.25
2019-01-08T09:40:32.264Z,996.28
2019-01-08T09:41:32.279Z,996.27
2019-01-08T09:42:32.240Z,996.21
2019-01-08T09:43:32.222Z,996.29
2019-01-08T09:44:32.238Z,996.25
2019-01-08T09:45:32.221Z,996.18
2019-01-08T09:46:32.225Z,996.24
2019-01-08T09:47:32.230Z,996.19
2019-01-08T09:48:32.176Z,996.28
2019-01-08T09:49:32.178Z,996.23
2019-01-08T09:50:32.195Z,996.21
2019-01-08T09:51:32.182Z,996.31
2019-01-08T09:52:32.163Z,996.24
2019-01-08T09:53:32.117Z,996.17
2019-01-08T09:54:32.107Z,996.25
2019-01-08T09:55:32.112Z,996.30
2019-01-08T09:56:32.108Z,996.24
2019-01-08T09:57:32.110Z,996.16
2019-01-08T09:58:32.105Z,996.22
2019-01-08T09:59:32.068Z,996.19
2019-01-08T10:00:32.065Z,996.21
2019-01-08T10:01:32.031Z,996.12
2019-01-08T10:02:32.035Z,996.16
2019-01-08T10:03:32.028Z,996.08
2019-01-08T10:04:32.072Z,996.14
2019-01-08T10:05:31.992Z,996.14
2019-01-08T10:06:31.987Z,996.11
2019-01-08T10:07:31.984Z,996.08
2019-01-08T10:08:31.985Z,996.07
2019-01-08T10:11:43.354Z,996.16
2019-01-08T10:12:43.330Z,996.06
2019-01-08T10:13:43.316Z,995.99
2019-01-08T10:14:43.309Z,996.07
2019-01-08T10:15:43.293Z,996.03
2019-01-08T10:16:43.297Z,996.01
2019-01-08T10:17:43.281Z,995.97
2019-01-08T10:18:43.262Z,995.95
2019-01-08T10:19:43.268Z,995.90
2019-01-08T10:20:43.239Z,995.91
2019-01-08T10:21:43.250Z,995.97
2019-01-08T10:22:43.303Z,996.03
2019-01-08T10:23:43.215Z,995.99
2019-01-08T10:24:43.200Z,996.01
2019-01-08T10:25:43.185Z,995.99
2019-01-08T10:26:43.219Z,995.97
2019-01-08T10:27:43.176Z,995.87
2019-01-08T10:28:43.160Z,995.88
2019-01-08T10:29:43.147Z,995.89
2019-01-08T10:30:43.134Z,995.85
2019-01-08T10:31:43.121Z,995.95
2019-01-08T10:32:43.138Z,995.86
2019-01-08T10:33:43.101Z,995.85
2019-01-08T10:34:43.090Z,995.82
2019-01-08T10:35:43.101Z,995.83
2019-01-08T10:36:43.069Z,995.82
2019-01-08T10:37:43.070Z,995.77
2019-01-08T10:38:43.047Z,995.82
2019-01-08T10:39:43.035Z,995.81
2019-01-08T10:40:43.026Z,995.78
2019-01-08T10:41:43.023Z,995.74
2019-01-08T10:42:43.035Z,995.77
2019-01-08T10:43:42.994Z,995.75
2019-01-08T10:44:42.983Z,995.74
2019-01-08T10:45:42.975Z,995.72
2019-01-08T10:46:42.960Z,995.67
2019-01-08T10:47:42.969Z,995.69
2019-01-08T10:48:42.940Z,995.68
2019-01-08T10:49:42.930Z,995.70
2019-01-08T10:50:42.919Z,995.75
2019-01-08T10:51:42.907Z,995.72
2019-01-08T10:52:42.911Z,995.70
2019-01-08T10:53:42.892Z,995.64
2019-01-08T10:54:42.879Z,995.69
2019-01-08T10:55:42.927Z,995.64
2019-01-08T10:56:42.855Z,995.66
2019-01-08T10:57:42.869Z,995.64
2019-01-08T10:58:42.833Z,995.63
2019-01-08T10:59:42.832Z,995.67
2019-01-08T11:00:42.891Z,995.63
2019-01-08T11:01:42.800Z,995.71
2019-01-08T11:02:42.788Z,995.68
2019-01-08T11:03:42.814Z,995.66
2019-01-08T11:04:42.768Z,995.63
2019-01-08T11:05:42.784Z,995.60
2019-01-08T11:06:42.767Z,995.61
2019-01-08T11:07:42.735Z,995.58
2019-01-08T11:08:42.737Z,995.63
2019-01-08T11:09:42.719Z,995.56
2019-01-08T11:10:42.705Z,995.55
2019-01-08T11:11:42.693Z,995.56
2019-01-08T11:12:42.720Z,995.58
2019-01-08T11:13:42.686Z,995.56
2019-01-08T11:14:42.661Z,995.55
2019-01-08T11:15:42.649Z,995.59
2019-01-08T11:16:42.647Z,995.59
2019-01-08T11:17:42.627Z,995.54
2019-01-08T11:18:42.635Z,995.54
2019-01-08T11:19:42.607Z,995.52
2019-01-08T11:20:42.597Z,995.56
2019-01-08T11:21:42.586Z,995.55
2019-01-08T11:22:42.574Z,995.51
2019-01-08T11:23:42.575Z,995.50
2019-01-08T11:24:42.562Z,995.53
2019-01-08T11:25:42.543Z,995.58
2019-01-08T11:26:42.533Z,995.58
2019-01-08T11:27:42.520Z,995.46
2019-01-08T11:28:43.231Z,995.55
2019-01-08T11:29:42.501Z,995.44
2019-01-08T11:30:42.501Z,995.48
2019-01-08T11:31:48.805Z,995.43
2019-01-08T11:32:43.465Z,995.50
2019-01-08T11:33:42.473Z,995.46
2019-01-08T11:34:42.446Z,995.48
2019-01-08T11:35:42.538Z,995.46
2019-01-08T11:36:42.425Z,995.47
2019-01-08T11:37:42.412Z,995.51
2019-01-08T11:38:42.417Z,995.48
2019-01-08T11:39:42.393Z,995.52
2019-01-08T11:40:42.379Z,995.48
2019-01-08T11:41:42.369Z,995.43
2019-01-08T11:42:42.369Z,995.46
2019-01-08T11:43:42.383Z,995.46
2019-01-08T11:44:42.419Z,995.35
2019-01-08T11:45:42.326Z,995.37
2019-01-08T11:46:42.316Z,995.35
2019-01-08T11:47:42.304Z,995.38
2019-01-08T11:48:42.302Z,995.31
2019-01-08T11:49:42.296Z,995.27
2019-01-08T11:50:42.271Z,995.28
2019-01-08T11:51:42.262Z,995.26
2019-01-08T11:52:42.249Z,995.20
2019-01-08T11:53:42.243Z,995.20
2019-01-08T11:54:42.247Z,995.22
2019-01-08T11:55:42.218Z,995.23
2019-01-08T11:56:42.207Z,995.13
2019-01-08T11:57:42.196Z,995.13
2019-01-08T11:58:42.185Z,995.10
2019-01-08T11:59:42.193Z,995.12
2019-01-08T12:00:42.171Z,995.10
2019-01-08T12:01:42.224Z,995.10
2019-01-08T12:02:47.769Z,995.07
2019-01-08T12:03:43.129Z,995.11
2019-01-08T12:04:42.144Z,995.08
2019-01-08T12:05:42.112Z,995.06
2019-01-08T12:06:42.102Z,995.01
2019-01-08T12:07:42.102Z,995.04
2019-01-08T12:08:42.078Z,995.03
2019-01-08T12:09:42.082Z,995.03
2019-01-08T12:10:42.057Z,995.07
2019-01-08T12:11:42.045Z,995.03
2019-01-08T12:12:42.034Z,995.00
2019-01-08T12:13:42.033Z,994.93
2019-01-08T12:14:42.027Z,994.97
2019-01-08T12:15:42.003Z,994.93
2019-01-08T12:16:41.992Z,994.96
2019-01-08T12:17:41.980Z,995.00
2019-01-08T12:18:41.991Z,994.92
2019-01-08T12:19:42.001Z,994.93
2019-01-08T12:20:41.949Z,994.91
2019-01-08T12:21:41.939Z,994.87
2019-01-08T12:22:41.927Z,994.87
2019-01-08T12:23:41.918Z,994.87
2019-01-08T12:24:41.905Z,994.87
2019-01-08T12:25:41.922Z,994.85